sensor_id;sensor_type;location;lat;lon;timestamp;temperature;humidity
14877;DHT22;69691;48.172;17.070;2023-10-09T00:01:04;13.00;79.10
14877;DHT22;69691;48.172;17.070;2023-10-09T00:03:35;13.00;78.70
14877;DHT22;69691;48.172;17.070;2023-10-09T00:06:03;13.00;78.40
14877;DHT22;69691;48.172;17.070;2023-10-09T00:08:30;13.10;78.50
14877;DHT22;69691;48.172;17.070;2023-10-09T00:10:59;13.00;78.40
14877;DHT22;69691;48.172;17.070;2023-10-09T00:13:39;13.00;78.40
14877;DHT22;69691;48.172;17.070;2023-10-09T00:16:19;13.10;78.50
14877;DHT22;69691;48.172;17.070;2023-10-09T00:19:05;13.10;78.30
14877;DHT22;69691;48.172;17.070;2023-10-09T00:21:47;13.10;78.30
14877;DHT22;69691;48.172;17.070;2023-10-09T00:24:13;13.10;78.00
14877;DHT22;69691;48.172;17.070;2023-10-09T00:26:40;13.00;78.10
14877;DHT22;69691;48.172;17.070;2023-10-09T00:29:12;13.00;78.10
14877;DHT22;69691;48.172;17.070;2023-10-09T00:31:52;13.00;77.80
14877;DHT22;69691;48.172;17.070;2023-10-09T00:34:31;13.00;78.30
14877;DHT22;69691;48.172;17.070;2023-10-09T00:37:06;13.00;78.30
14877;DHT22;69691;48.172;17.070;2023-10-09T00:39:36;13.10;78.00
14877;DHT22;69691;48.172;17.070;2023-10-09T00:42:02;13.10;77.60
14877;DHT22;69691;48.172;17.070;2023-10-09T00:44:31;13.10;77.30
14877;DHT22;69691;48.172;17.070;2023-10-09T00:47:05;13.00;75.70
14877;DHT22;69691;48.172;17.070;2023-10-09T00:49:37;13.10;75.80
14877;DHT22;69691;48.172;17.070;2023-10-09T00:52:08;13.10;76.00
14877;DHT22;69691;48.172;17.070;2023-10-09T00:54:44;13.10;75.90
14877;DHT22;69691;48.172;17.070;2023-10-09T00:57:17;13.10;75.80
14877;DHT22;69691;48.172;17.070;2023-10-09T00:59:47;13.10;75.80
14877;DHT22;69691;48.172;17.070;2023-10-09T01:02:26;13.10;76.10
14877;DHT22;69691;48.172;17.070;2023-10-09T01:05:04;13.10;75.60
14877;DHT22;69691;48.172;17.070;2023-10-09T01:07:47;13.20;75.10
14877;DHT22;69691;48.172;17.070;2023-10-09T01:10:14;13.20;75.10
14877;DHT22;69691;48.172;17.070;2023-10-09T01:12:44;13.30;74.80
14877;DHT22;69691;48.172;17.070;2023-10-09T01:15:10;13.30;74.50
14877;DHT22;69691;48.172;17.070;2023-10-09T01:17:59;13.40;74.40
14877;DHT22;69691;48.172;17.070;2023-10-09T01:20:25;13.40;74.70
14877;DHT22;69691;48.172;17.070;2023-10-09T01:22:56;13.40;74.40
14877;DHT22;69691;48.172;17.070;2023-10-09T01:25:22;13.40;74.10
14877;DHT22;69691;48.172;17.070;2023-10-09T01:27:48;13.50;73.80
14877;DHT22;69691;48.172;17.070;2023-10-09T01:30:13;13.50;73.60
14877;DHT22;69691;48.172;17.070;2023-10-09T01:32:40;13.50;73.20
14877;DHT22;69691;48.172;17.070;2023-10-09T01:35:06;13.50;72.90
14877;DHT22;69691;48.172;17.070;2023-10-09T01:37:46;13.50;72.40
14877;DHT22;69691;48.172;17.070;2023-10-09T01:40:16;13.50;72.40
14877;DHT22;69691;48.172;17.070;2023-10-09T01:42:50;13.50;72.30
14877;DHT22;69691;48.172;17.070;2023-10-09T01:45:16;13.50;72.00
14877;DHT22;69691;48.172;17.070;2023-10-09T01:47:53;13.60;71.70
14877;DHT22;69691;48.172;17.070;2023-10-09T01:50:23;13.60;71.40
14877;DHT22;69691;48.172;17.070;2023-10-09T01:52:57;13.60;71.00
14877;DHT22;69691;48.172;17.070;2023-10-09T01:55:26;13.60;71.20
14877;DHT22;69691;48.172;17.070;2023-10-09T01:58:06;13.60;69.80
14877;DHT22;69691;48.172;17.070;2023-10-09T02:00:42;13.60;68.80
14877;DHT22;69691;48.172;17.070;2023-10-09T02:03:09;13.50;67.70
14877;DHT22;69691;48.172;17.070;2023-10-09T02:05:50;13.60;66.90
14877;DHT22;69691;48.172;17.070;2023-10-09T02:08:19;13.60;65.90
14877;DHT22;69691;48.172;17.070;2023-10-09T02:10:52;13.50;64.70
14877;DHT22;69691;48.172;17.070;2023-10-09T02:13:22;13.50;64.80
14877;DHT22;69691;48.172;17.070;2023-10-09T02:15:58;13.50;62.80
14877;DHT22;69691;48.172;17.070;2023-10-09T02:18:54;13.60;63.40
14877;DHT22;69691;48.172;17.070;2023-10-09T02:21:25;13.50;61.90
14877;DHT22;69691;48.172;17.070;2023-10-09T02:24:05;13.50;60.40
14877;DHT22;69691;48.172;17.070;2023-10-09T02:26:51;13.50;59.40
14877;DHT22;69691;48.172;17.070;2023-10-09T02:29:17;13.60;58.90
14877;DHT22;69691;48.172;17.070;2023-10-09T02:31:46;13.70;58.40
14877;DHT22;69691;48.172;17.070;2023-10-09T02:34:17;13.70;57.80
14877;DHT22;69691;48.172;17.070;2023-10-09T02:36:51;13.70;57.20
14877;DHT22;69691;48.172;17.070;2023-10-09T02:39:26;13.80;56.80
14877;DHT22;69691;48.172;17.070;2023-10-09T02:41:52;13.80;56.50
14877;DHT22;69691;48.172;17.070;2023-10-09T02:44:45;13.80;56.20
14877;DHT22;69691;48.172;17.070;2023-10-09T02:47:18;13.90;56.20
14877;DHT22;69691;48.172;17.070;2023-10-09T02:49:55;13.90;55.80
14877;DHT22;69691;48.172;17.070;2023-10-09T02:52:33;13.90;55.60
14877;DHT22;69691;48.172;17.070;2023-10-09T02:55:06;13.90;55.40
14877;DHT22;69691;48.172;17.070;2023-10-09T02:57:59;13.90;55.30
14877;DHT22;69691;48.172;17.070;2023-10-09T03:00:39;13.90;55.10
14877;DHT22;69691;48.172;17.070;2023-10-09T03:03:09;13.90;54.60
14877;DHT22;69691;48.172;17.070;2023-10-09T03:05:35;13.90;54.20
14877;DHT22;69691;48.172;17.070;2023-10-09T03:08:07;13.90;54.20
14877;DHT22;69691;48.172;17.070;2023-10-09T03:10:38;13.90;54.00
14877;DHT22;69691;48.172;17.070;2023-10-09T03:13:04;14.00;54.00
14877;DHT22;69691;48.172;17.070;2023-10-09T03:15:31;14.00;53.80
14877;DHT22;69691;48.172;17.070;2023-10-09T03:18:04;14.00;53.50
14877;DHT22;69691;48.172;17.070;2023-10-09T03:20:31;14.00;53.40
14877;DHT22;69691;48.172;17.070;2023-10-09T03:22:56;14.00;53.40
14877;DHT22;69691;48.172;17.070;2023-10-09T03:25:23;14.00;53.50
14877;DHT22;69691;48.172;17.070;2023-10-09T03:27:50;14.00;53.70
14877;DHT22;69691;48.172;17.070;2023-10-09T03:30:18;14.00;54.00
14877;DHT22;69691;48.172;17.070;2023-10-09T03:32:51;14.00;53.90
14877;DHT22;69691;48.172;17.070;2023-10-09T03:35:18;14.00;53.70
14877;DHT22;69691;48.172;17.070;2023-10-09T03:37:57;14.00;53.70
14877;DHT22;69691;48.172;17.070;2023-10-09T03:40:25;14.10;54.10
14877;DHT22;69691;48.172;17.070;2023-10-09T03:42:52;14.10;53.10
14877;DHT22;69691;48.172;17.070;2023-10-09T03:45:20;14.00;52.70
14877;DHT22;69691;48.172;17.070;2023-10-09T03:47:56;14.00;52.40
14877;DHT22;69691;48.172;17.070;2023-10-09T03:50:43;14.00;52.50
14877;DHT22;69691;48.172;17.070;2023-10-09T03:53:11;13.90;52.30
14877;DHT22;69691;48.172;17.070;2023-10-09T03:55:38;13.90;52.30
14877;DHT22;69691;48.172;17.070;2023-10-09T03:58:06;13.90;52.20
14877;DHT22;69691;48.172;17.070;2023-10-09T04:00:32;13.90;52.00
14877;DHT22;69691;48.172;17.070;2023-10-09T04:03:06;14.00;52.40
14877;DHT22;69691;48.172;17.070;2023-10-09T04:05:32;14.00;52.40
14877;DHT22;69691;48.172;17.070;2023-10-09T04:07:58;14.00;52.30
14877;DHT22;69691;48.172;17.070;2023-10-09T04:10:27;14.00;52.20
14877;DHT22;69691;48.172;17.070;2023-10-09T04:13:09;14.00;52.30
14877;DHT22;69691;48.172;17.070;2023-10-09T04:15:43;14.00;52.40
14877;DHT22;69691;48.172;17.070;2023-10-09T04:18:09;14.00;52.30
14877;DHT22;69691;48.172;17.070;2023-10-09T04:20:44;14.00;52.00
14877;DHT22;69691;48.172;17.070;2023-10-09T04:23:33;14.00;52.00
14877;DHT22;69691;48.172;17.070;2023-10-09T04:26:21;14.00;52.10
14877;DHT22;69691;48.172;17.070;2023-10-09T04:28:51;14.00;52.00
14877;DHT22;69691;48.172;17.070;2023-10-09T04:31:19;14.00;51.80
14877;DHT22;69691;48.172;17.070;2023-10-09T04:33:47;14.00;51.80
14877;DHT22;69691;48.172;17.070;2023-10-09T04:36:39;14.00;51.80
14877;DHT22;69691;48.172;17.070;2023-10-09T04:39:12;14.00;52.00
14877;DHT22;69691;48.172;17.070;2023-10-09T04:41:38;14.00;51.90
14877;DHT22;69691;48.172;17.070;2023-10-09T04:44:06;13.90;52.00
14877;DHT22;69691;48.172;17.070;2023-10-09T04:46:45;14.00;52.10
14877;DHT22;69691;48.172;17.070;2023-10-09T04:49:36;14.00;52.10
14877;DHT22;69691;48.172;17.070;2023-10-09T04:52:19;14.00;52.10
14877;DHT22;69691;48.172;17.070;2023-10-09T04:54:51;13.90;52.10
14877;DHT22;69691;48.172;17.070;2023-10-09T04:57:43;13.90;52.20
14877;DHT22;69691;48.172;17.070;2023-10-09T05:00:11;14.00;52.20
14877;DHT22;69691;48.172;17.070;2023-10-09T05:02:51;13.90;52.00
14877;DHT22;69691;48.172;17.070;2023-10-09T05:05:25;13.80;52.10
14877;DHT22;69691;48.172;17.070;2023-10-09T05:10:48;13.70;53.00
14877;DHT22;69691;48.172;17.070;2023-10-09T05:18:51;13.70;52.60
14877;DHT22;69691;48.172;17.070;2023-10-09T05:21:53;13.70;52.40
14877;DHT22;69691;48.172;17.070;2023-10-09T05:24:24;13.70;52.50
14877;DHT22;69691;48.172;17.070;2023-10-09T05:26:52;13.70;52.60
14877;DHT22;69691;48.172;17.070;2023-10-09T05:29:25;13.80;52.80
14877;DHT22;69691;48.172;17.070;2023-10-09T05:31:54;13.90;52.80
14877;DHT22;69691;48.172;17.070;2023-10-09T05:34:32;13.90;52.80
14877;DHT22;69691;48.172;17.070;2023-10-09T05:37:16;13.90;53.00
14877;DHT22;69691;48.172;17.070;2023-10-09T05:39:46;14.00;53.40
14877;DHT22;69691;48.172;17.070;2023-10-09T05:42:33;14.00;53.70
14877;DHT22;69691;48.172;17.070;2023-10-09T05:45:04;14.00;54.00
14877;DHT22;69691;48.172;17.070;2023-10-09T05:47:45;14.10;54.00
14877;DHT22;69691;48.172;17.070;2023-10-09T05:50:33;14.10;54.20
14877;DHT22;69691;48.172;17.070;2023-10-09T05:53:01;14.10;54.50
14877;DHT22;69691;48.172;17.070;2023-10-09T05:55:28;14.10;54.80
14877;DHT22;69691;48.172;17.070;2023-10-09T05:58:13;14.10;55.10
14877;DHT22;69691;48.172;17.070;2023-10-09T06:00:58;14.10;55.50
14877;DHT22;69691;48.172;17.070;2023-10-09T06:03:42;14.20;55.90
14877;DHT22;69691;48.172;17.070;2023-10-09T06:06:15;14.10;56.10
14877;DHT22;69691;48.172;17.070;2023-10-09T06:09:00;14.00;56.80
14877;DHT22;69691;48.172;17.070;2023-10-09T06:11:54;14.00;57.30
14877;DHT22;69691;48.172;17.070;2023-10-09T06:14:22;14.10;57.80
14877;DHT22;69691;48.172;17.070;2023-10-09T06:17:12;14.20;58.10
14877;DHT22;69691;48.172;17.070;2023-10-09T06:20:04;14.30;58.20
14877;DHT22;69691;48.172;17.070;2023-10-09T06:22:50;14.40;58.70
14877;DHT22;69691;48.172;17.070;2023-10-09T06:25:22;14.60;59.30
14877;DHT22;69691;48.172;17.070;2023-10-09T06:27:58;14.70;59.60
14877;DHT22;69691;48.172;17.070;2023-10-09T06:30:24;14.90;60.30
14877;DHT22;69691;48.172;17.070;2023-10-09T06:32:51;15.00;60.50
14877;DHT22;69691;48.172;17.070;2023-10-09T06:35:26;15.10;60.80
14877;DHT22;69691;48.172;17.070;2023-10-09T06:37:59;15.20;61.10
14877;DHT22;69691;48.172;17.070;2023-10-09T06:40:32;15.20;61.40
14877;DHT22;69691;48.172;17.070;2023-10-09T06:43:05;15.20;62.20
14877;DHT22;69691;48.172;17.070;2023-10-09T06:45:56;15.20;63.70
14877;DHT22;69691;48.172;17.070;2023-10-09T06:48:41;15.30;63.70
14877;DHT22;69691;48.172;17.070;2023-10-09T06:51:14;15.40;64.00
14877;DHT22;69691;48.172;17.070;2023-10-09T06:53:55;15.60;64.20
14877;DHT22;69691;48.172;17.070;2023-10-09T06:56:26;15.80;64.00
14877;DHT22;69691;48.172;17.070;2023-10-09T06:59:03;15.90;63.90
14877;DHT22;69691;48.172;17.070;2023-10-09T07:01:42;16.10;63.70
14877;DHT22;69691;48.172;17.070;2023-10-09T07:04:08;16.30;63.10
14877;DHT22;69691;48.172;17.070;2023-10-09T07:06:53;16.40;63.20
14877;DHT22;69691;48.172;17.070;2023-10-09T07:09:22;16.60;62.90
14877;DHT22;69691;48.172;17.070;2023-10-09T07:11:51;16.70;62.60
14877;DHT22;69691;48.172;17.070;2023-10-09T07:14:23;16.60;62.20
14877;DHT22;69691;48.172;17.070;2023-10-09T07:17:04;16.60;62.70
14877;DHT22;69691;48.172;17.070;2023-10-09T07:19:51;16.40;62.90
14877;DHT22;69691;48.172;17.070;2023-10-09T07:22:19;16.30;63.60
14877;DHT22;69691;48.172;17.070;2023-10-09T07:24:54;16.20;64.40
14877;DHT22;69691;48.172;17.070;2023-10-09T07:27:24;16.10;64.90
14877;DHT22;69691;48.172;17.070;2023-10-09T07:30:20;16.20;65.50
14877;DHT22;69691;48.172;17.070;2023-10-09T07:32:57;16.20;65.50
14877;DHT22;69691;48.172;17.070;2023-10-09T07:35:44;16.20;65.70
14877;DHT22;69691;48.172;17.070;2023-10-09T07:38:17;16.10;66.10
14877;DHT22;69691;48.172;17.070;2023-10-09T07:40:48;16.10;65.90
14877;DHT22;69691;48.172;17.070;2023-10-09T07:43:28;16.00;66.00
14877;DHT22;69691;48.172;17.070;2023-10-09T07:46:04;16.10;66.40
14877;DHT22;69691;48.172;17.070;2023-10-09T07:48:51;16.20;66.50
14877;DHT22;69691;48.172;17.070;2023-10-09T07:51:21;16.20;65.80
14877;DHT22;69691;48.172;17.070;2023-10-09T07:54:11;16.30;65.70
14877;DHT22;69691;48.172;17.070;2023-10-09T07:56:43;16.30;65.30
14877;DHT22;69691;48.172;17.070;2023-10-09T07:59:11;16.40;64.50
14877;DHT22;69691;48.172;17.070;2023-10-09T08:01:49;16.40;64.20
14877;DHT22;69691;48.172;17.070;2023-10-09T08:04:22;16.50;64.00
14877;DHT22;69691;48.172;17.070;2023-10-09T08:07:04;16.60;63.50
14877;DHT22;69691;48.172;17.070;2023-10-09T08:09:33;16.70;63.40
14877;DHT22;69691;48.172;17.070;2023-10-09T08:12:15;16.80;63.20
14877;DHT22;69691;48.172;17.070;2023-10-09T08:15:00;16.90;62.70
14877;DHT22;69691;48.172;17.070;2023-10-09T08:17:58;17.00;62.00
14877;DHT22;69691;48.172;17.070;2023-10-09T08:20:25;17.10;61.70
14877;DHT22;69691;48.172;17.070;2023-10-09T08:22:52;17.30;61.00
14877;DHT22;69691;48.172;17.070;2023-10-09T08:25:26;17.50;60.00
14877;DHT22;69691;48.172;17.070;2023-10-09T08:27:56;17.80;59.20
14877;DHT22;69691;48.172;17.070;2023-10-09T08:30:44;18.10;57.90
14877;DHT22;69691;48.172;17.070;2023-10-09T08:33:36;18.20;57.70
14877;DHT22;69691;48.172;17.070;2023-10-09T08:36:06;18.60;57.10
14877;DHT22;69691;48.172;17.070;2023-10-09T08:38:40;18.90;56.00
14877;DHT22;69691;48.172;17.070;2023-10-09T08:41:11;19.20;55.30
14877;DHT22;69691;48.172;17.070;2023-10-09T08:43:49;19.40;54.50
14877;DHT22;69691;48.172;17.070;2023-10-09T08:46:26;19.70;54.10
14877;DHT22;69691;48.172;17.070;2023-10-09T08:48:57;19.90;53.50
14877;DHT22;69691;48.172;17.070;2023-10-09T08:51:25;20.10;53.10
14877;DHT22;69691;48.172;17.070;2023-10-09T08:53:53;20.40;53.30
14877;DHT22;69691;48.172;17.070;2023-10-09T08:56:20;20.60;52.00
14877;DHT22;69691;48.172;17.070;2023-10-09T08:58:56;20.80;51.80
14877;DHT22;69691;48.172;17.070;2023-10-09T09:01:25;21.10;51.10
14877;DHT22;69691;48.172;17.070;2023-10-09T09:03:53;21.30;50.60
14877;DHT22;69691;48.172;17.070;2023-10-09T09:06:21;21.40;50.10
14877;DHT22;69691;48.172;17.070;2023-10-09T09:08:50;21.50;49.80
14877;DHT22;69691;48.172;17.070;2023-10-09T09:11:25;21.50;49.40
14877;DHT22;69691;48.172;17.070;2023-10-09T09:16:29;21.10;49.60
14877;DHT22;69691;48.172;17.070;2023-10-09T09:21:37;20.40;50.70
14877;DHT22;69691;48.172;17.070;2023-10-09T09:24:10;20.30;51.00
14877;DHT22;69691;48.172;17.070;2023-10-09T09:26:53;20.30;51.10
14877;DHT22;69691;48.172;17.070;2023-10-09T09:29:44;20.40;51.30
14877;DHT22;69691;48.172;17.070;2023-10-09T09:32:28;20.30;51.00
14877;DHT22;69691;48.172;17.070;2023-10-09T09:35:01;20.30;51.60
14877;DHT22;69691;48.172;17.070;2023-10-09T09:37:34;20.30;51.50
14877;DHT22;69691;48.172;17.070;2023-10-09T09:40:09;20.50;51.30
14877;DHT22;69691;48.172;17.070;2023-10-09T09:42:57;20.60;50.90
14877;DHT22;69691;48.172;17.070;2023-10-09T09:45:38;20.80;50.90
14877;DHT22;69691;48.172;17.070;2023-10-09T09:48:12;20.90;50.50
14877;DHT22;69691;48.172;17.070;2023-10-09T09:50:41;20.70;50.70
14877;DHT22;69691;48.172;17.070;2023-10-09T09:53:13;20.70;50.80
14877;DHT22;69691;48.172;17.070;2023-10-09T09:55:49;20.80;50.80
14877;DHT22;69691;48.172;17.070;2023-10-09T09:58:24;20.80;50.40
14877;DHT22;69691;48.172;17.070;2023-10-09T10:00:53;20.80;50.40
14877;DHT22;69691;48.172;17.070;2023-10-09T10:03:34;20.60;50.60
14877;DHT22;69691;48.172;17.070;2023-10-09T10:06:04;20.60;50.90
14877;DHT22;69691;48.172;17.070;2023-10-09T10:08:35;20.40;51.30
14877;DHT22;69691;48.172;17.070;2023-10-09T10:11:05;20.40;51.30
14877;DHT22;69691;48.172;17.070;2023-10-09T10:18:59;20.60;51.10
14877;DHT22;69691;48.172;17.070;2023-10-09T10:21:29;20.70;51.00
14877;DHT22;69691;48.172;17.070;2023-10-09T10:23:59;20.70;50.70
14877;DHT22;69691;48.172;17.070;2023-10-09T10:26:32;20.80;50.80
14877;DHT22;69691;48.172;17.070;2023-10-09T10:29:19;20.70;50.50
14877;DHT22;69691;48.172;17.070;2023-10-09T10:32:06;20.70;51.00
14877;DHT22;69691;48.172;17.070;2023-10-09T10:37:38;20.40;51.20
14877;DHT22;69691;48.172;17.070;2023-10-09T10:40:25;20.30;51.80
14877;DHT22;69691;48.172;17.070;2023-10-09T10:43:05;20.20;51.80
14877;DHT22;69691;48.172;17.070;2023-10-09T10:45:45;20.30;52.20
14877;DHT22;69691;48.172;17.070;2023-10-09T10:48:11;20.30;53.10
14877;DHT22;69691;48.172;17.070;2023-10-09T10:51:06;20.30;53.60
14877;DHT22;69691;48.172;17.070;2023-10-09T10:56:14;20.20;56.60
14877;DHT22;69691;48.172;17.070;2023-10-09T10:58:41;20.00;58.20
14877;DHT22;69691;48.172;17.070;2023-10-09T11:01:19;19.90;60.40
14877;DHT22;69691;48.172;17.070;2023-10-09T11:03:50;19.90;62.80
14877;DHT22;69691;48.172;17.070;2023-10-09T11:06:29;19.90;64.70
14877;DHT22;69691;48.172;17.070;2023-10-09T11:09:06;19.90;67.90
14877;DHT22;69691;48.172;17.070;2023-10-09T11:11:56;19.80;69.30
14877;DHT22;69691;48.172;17.070;2023-10-09T11:14:48;19.70;71.40
14877;DHT22;69691;48.172;17.070;2023-10-09T11:17:37;19.60;72.30
14877;DHT22;69691;48.172;17.070;2023-10-09T11:20:07;19.60;70.30
14877;DHT22;69691;48.172;17.070;2023-10-09T11:22:52;19.60;70.10
14877;DHT22;69691;48.172;17.070;2023-10-09T11:25:38;19.60;72.50
14877;DHT22;69691;48.172;17.070;2023-10-09T11:28:20;19.60;74.10
14877;DHT22;69691;48.172;17.070;2023-10-09T11:31:09;19.40;75.70
14877;DHT22;69691;48.172;17.070;2023-10-09T11:33:51;19.10;75.60
14877;DHT22;69691;48.172;17.070;2023-10-09T11:36:21;19.10;78.10
14877;DHT22;69691;48.172;17.070;2023-10-09T11:39:00;19.00;78.60
14877;DHT22;69691;48.172;17.070;2023-10-09T11:41:43;19.00;79.70
14877;DHT22;69691;48.172;17.070;2023-10-09T11:44:15;19.00;80.10
14877;DHT22;69691;48.172;17.070;2023-10-09T11:47:02;19.00;80.00
14877;DHT22;69691;48.172;17.070;2023-10-09T11:49:56;18.90;81.40
14877;DHT22;69691;48.172;17.070;2023-10-09T11:52:26;18.90;82.70
14877;DHT22;69691;48.172;17.070;2023-10-09T11:55:11;18.80;82.00
14877;DHT22;69691;48.172;17.070;2023-10-09T11:57:42;18.80;83.60
14877;DHT22;69691;48.172;17.070;2023-10-09T12:00:08;18.80;84.50
14877;DHT22;69691;48.172;17.070;2023-10-09T12:02:51;18.80;84.80
14877;DHT22;69691;48.172;17.070;2023-10-09T12:05:18;18.70;85.20
14877;DHT22;69691;48.172;17.070;2023-10-09T12:07:46;18.70;85.70
14877;DHT22;69691;48.172;17.070;2023-10-09T12:10:19;18.60;86.60
14877;DHT22;69691;48.172;17.070;2023-10-09T12:12:51;18.60;87.00
14877;DHT22;69691;48.172;17.070;2023-10-09T12:15:18;18.60;86.40
14877;DHT22;69691;48.172;17.070;2023-10-09T12:17:45;18.50;86.50
14877;DHT22;69691;48.172;17.070;2023-10-09T12:20:16;18.30;85.40
14877;DHT22;69691;48.172;17.070;2023-10-09T12:22:58;18.20;85.00
14877;DHT22;69691;48.172;17.070;2023-10-09T12:25:25;18.10;85.90
14877;DHT22;69691;48.172;17.070;2023-10-09T12:27:52;18.00;85.80
14877;DHT22;69691;48.172;17.070;2023-10-09T12:30:20;18.00;85.50
14877;DHT22;69691;48.172;17.070;2023-10-09T12:32:58;17.90;86.40
14877;DHT22;69691;48.172;17.070;2023-10-09T12:35:25;17.90;86.50
14877;DHT22;69691;48.172;17.070;2023-10-09T12:37:52;17.90;86.10
14877;DHT22;69691;48.172;17.070;2023-10-09T12:40:24;17.80;85.80
14877;DHT22;69691;48.172;17.070;2023-10-09T12:42:52;17.90;87.20
14877;DHT22;69691;48.172;17.070;2023-10-09T12:45:19;17.90;86.70
14877;DHT22;69691;48.172;17.070;2023-10-09T12:47:52;17.90;86.80
14877;DHT22;69691;48.172;17.070;2023-10-09T12:50:19;17.80;87.20
14877;DHT22;69691;48.172;17.070;2023-10-09T12:52:56;17.70;88.00
14877;DHT22;69691;48.172;17.070;2023-10-09T12:55:28;17.60;89.00
14877;DHT22;69691;48.172;17.070;2023-10-09T12:57:59;17.60;89.50
14877;DHT22;69691;48.172;17.070;2023-10-09T13:00:27;17.70;89.90
14877;DHT22;69691;48.172;17.070;2023-10-09T13:02:53;17.60;90.10
14877;DHT22;69691;48.172;17.070;2023-10-09T13:05:19;17.60;90.10
14877;DHT22;69691;48.172;17.070;2023-10-09T13:07:53;17.50;90.70
14877;DHT22;69691;48.172;17.070;2023-10-09T13:10:23;17.40;90.40
14877;DHT22;69691;48.172;17.070;2023-10-09T13:12:50;17.40;91.40
14877;DHT22;69691;48.172;17.070;2023-10-09T13:15:21;17.30;91.40
14877;DHT22;69691;48.172;17.070;2023-10-09T13:17:47;17.20;92.10
14877;DHT22;69691;48.172;17.070;2023-10-09T13:20:13;17.20;91.80
14877;DHT22;69691;48.172;17.070;2023-10-09T13:22:39;17.20;91.90
14877;DHT22;69691;48.172;17.070;2023-10-09T13:25:10;17.20;92.40
14877;DHT22;69691;48.172;17.070;2023-10-09T13:27:50;17.20;93.10
14877;DHT22;69691;48.172;17.070;2023-10-09T13:30:17;17.30;92.90
14877;DHT22;69691;48.172;17.070;2023-10-09T13:32:50;17.20;92.50
14877;DHT22;69691;48.172;17.070;2023-10-09T13:35:19;17.00;93.00
14877;DHT22;69691;48.172;17.070;2023-10-09T13:37:45;16.90;93.80
14877;DHT22;69691;48.172;17.070;2023-10-09T13:40:22;16.90;93.50
14877;DHT22;69691;48.172;17.070;2023-10-09T13:42:55;16.90;93.80
14877;DHT22;69691;48.172;17.070;2023-10-09T13:45:30;16.90;94.20
14877;DHT22;69691;48.172;17.070;2023-10-09T13:47:59;16.90;94.90
14877;DHT22;69691;48.172;17.070;2023-10-09T13:50:28;16.90;94.90
14877;DHT22;69691;48.172;17.070;2023-10-09T13:52:57;16.90;95.40
14877;DHT22;69691;48.172;17.070;2023-10-09T13:55:24;17.00;95.70
14877;DHT22;69691;48.172;17.070;2023-10-09T13:57:59;17.20;95.50
14877;DHT22;69691;48.172;17.070;2023-10-09T14:00:25;17.30;95.90
14877;DHT22;69691;48.172;17.070;2023-10-09T14:03:08;17.50;96.00
14877;DHT22;69691;48.172;17.070;2023-10-09T14:05:45;17.50;95.80
14877;DHT22;69691;48.172;17.070;2023-10-09T14:08:22;17.60;95.50
14877;DHT22;69691;48.172;17.070;2023-10-09T14:10:51;17.60;95.50
14877;DHT22;69691;48.172;17.070;2023-10-09T14:13:17;17.60;95.70
14877;DHT22;69691;48.172;17.070;2023-10-09T14:15:52;17.70;95.60
14877;DHT22;69691;48.172;17.070;2023-10-09T14:18:21;17.70;95.60
14877;DHT22;69691;48.172;17.070;2023-10-09T14:20:47;17.60;95.40
14877;DHT22;69691;48.172;17.070;2023-10-09T14:23:13;17.60;95.80
14877;DHT22;69691;48.172;17.070;2023-10-09T14:25:46;17.50;95.70
14877;DHT22;69691;48.172;17.070;2023-10-09T14:28:15;17.50;96.00
14877;DHT22;69691;48.172;17.070;2023-10-09T14:30:45;17.50;96.10
14877;DHT22;69691;48.172;17.070;2023-10-09T14:33:14;17.50;96.30
14877;DHT22;69691;48.172;17.070;2023-10-09T14:35:48;17.50;96.50
14877;DHT22;69691;48.172;17.070;2023-10-09T14:38:14;17.50;96.70
14877;DHT22;69691;48.172;17.070;2023-10-09T14:40:42;17.60;97.10
14877;DHT22;69691;48.172;17.070;2023-10-09T14:43:09;17.70;96.80
14877;DHT22;69691;48.172;17.070;2023-10-09T14:45:48;17.70;96.70
14877;DHT22;69691;48.172;17.070;2023-10-09T14:48:17;17.70;97.10
14877;DHT22;69691;48.172;17.070;2023-10-09T14:50:53;17.70;97.00
14877;DHT22;69691;48.172;17.070;2023-10-09T14:53:20;17.60;97.20
14877;DHT22;69691;48.172;17.070;2023-10-09T14:55:46;17.60;97.30
14877;DHT22;69691;48.172;17.070;2023-10-09T14:58:14;17.60;97.40
14877;DHT22;69691;48.172;17.070;2023-10-09T15:00:40;17.60;97.50
14877;DHT22;69691;48.172;17.070;2023-10-09T15:03:13;17.50;97.30
14877;DHT22;69691;48.172;17.070;2023-10-09T15:05:43;17.50;97.30
14877;DHT22;69691;48.172;17.070;2023-10-09T15:08:09;17.40;97.30
14877;DHT22;69691;48.172;17.070;2023-10-09T15:10:49;17.40;97.30
14877;DHT22;69691;48.172;17.070;2023-10-09T15:13:17;17.40;97.50
14877;DHT22;69691;48.172;17.070;2023-10-09T15:15:49;17.30;97.60
14877;DHT22;69691;48.172;17.070;2023-10-09T15:18:16;17.30;98.20
14877;DHT22;69691;48.172;17.070;2023-10-09T15:20:44;17.30;98.00
14877;DHT22;69691;48.172;17.070;2023-10-09T15:23:10;17.20;97.90
14877;DHT22;69691;48.172;17.070;2023-10-09T15:25:36;17.20;98.10
14877;DHT22;69691;48.172;17.070;2023-10-09T15:28:05;17.10;98.20
14877;DHT22;69691;48.172;17.070;2023-10-09T15:30:33;17.10;98.50
14877;DHT22;69691;48.172;17.070;2023-10-09T15:32:59;17.10;98.70
14877;DHT22;69691;48.172;17.070;2023-10-09T15:35:27;17.10;98.60
14877;DHT22;69691;48.172;17.070;2023-10-09T15:37:54;17.10;98.90
14877;DHT22;69691;48.172;17.070;2023-10-09T15:40:20;17.00;98.80
14877;DHT22;69691;48.172;17.070;2023-10-09T15:42:50;17.00;99.00
14877;DHT22;69691;48.172;17.070;2023-10-09T15:45:17;17.00;99.30
14877;DHT22;69691;48.172;17.070;2023-10-09T15:47:45;17.00;99.20
14877;DHT22;69691;48.172;17.070;2023-10-09T15:50:11;16.90;99.40
14877;DHT22;69691;48.172;17.070;2023-10-09T15:52:40;16.90;99.70
14877;DHT22;69691;48.172;17.070;2023-10-09T15:55:06;17.00;99.80
14877;DHT22;69691;48.172;17.070;2023-10-09T15:57:46;16.90;99.80
14877;DHT22;69691;48.172;17.070;2023-10-09T16:00:14;16.90;99.90
14877;DHT22;69691;48.172;17.070;2023-10-09T16:02:47;16.90;99.90
14877;DHT22;69691;48.172;17.070;2023-10-09T16:05:14;16.90;99.90
14877;DHT22;69691;48.172;17.070;2023-10-09T16:07:42;16.90;99.90
14877;DHT22;69691;48.172;17.070;2023-10-09T16:10:09;16.80;99.90
14877;DHT22;69691;48.172;17.070;2023-10-09T16:12:40;16.80;99.90
14877;DHT22;69691;48.172;17.070;2023-10-09T16:15:09;16.80;99.90
14877;DHT22;69691;48.172;17.070;2023-10-09T16:17:36;16.70;99.90
14877;DHT22;69691;48.172;17.070;2023-10-09T16:20:06;16.60;99.90